Time;durP1;ratioP1;P1;durP2;ratioP2;P2;SDS_P1;SDS_P2;PMS_P1;PMS_P2;Temp;Humidity;BMP_temperature;BMP_pressure;BME280_temperature;BME280_humidity;BME280_pressure;Samples;Min_cycle;Max_cycle;Signal;HPM_P1;HPM_P2
2022/02/13 00:00:43;;;;;;;20.55;8.57;;;;;;;1.90;100.00;98613.09;5008650;28;20029;-57
2022/02/13 00:03:09;;;;;;;22.92;8.40;;;;;;;2.43;100.00;98618.41;5011104;28;20043;-58
2022/02/13 00:05:41;;;;;;;36.33;10.07;;;;;;;3.45;100.00;98614.03;5032623;28;21242;-60
2022/02/13 00:08:06;;;;;;;32.50;9.23;;;;;;;4.05;100.00;98613.81;5025131;28;20029;-59
2022/02/13 00:10:32;;;;;;;28.65;8.88;;;;;;;2.37;100.00;98611.53;5026375;28;20120;-59
2022/02/13 00:12:58;;;;;;;35.53;8.48;;;;;;;2.89;100.00;98600.38;5027710;28;20036;-60
2022/02/13 00:15:23;;;;;;;35.03;9.35;;;;;;;3.86;100.00;98597.56;5026011;28;20026;-59
2022/02/13 00:17:48;;;;;;;28.00;9.38;;;;;;;3.22;100.00;98604.63;5026280;28;20032;-57
2022/02/13 00:20:14;;;;;;;24.70;8.75;;;;;;;3.66;100.00;98602.81;5026498;28;20123;-56
2022/02/13 00:22:39;;;;;;;22.67;8.98;;;;;;;3.90;100.00;98599.28;5026368;28;20391;-57
2022/02/13 00:25:05;;;;;;;26.95;9.50;;;;;;;4.01;100.00;98597.50;5022485;28;20053;-57
2022/02/13 00:27:30;;;;;;;25.65;8.68;;;;;;;4.55;100.00;98598.88;5024138;28;20415;-56
2022/02/13 00:29:56;;;;;;;24.80;8.88;;;;;;;4.13;100.00;98600.88;5023326;28;20022;-55
2022/02/13 00:32:23;;;;;;;24.63;8.82;;;;;;;3.28;100.00;98590.88;5024273;28;20065;-57
2022/02/13 00:34:49;;;;;;;28.67;8.70;;;;;;;2.61;100.00;98599.50;5023971;28;20893;-59
2022/02/13 00:37:15;;;;;;;24.20;8.40;;;;;;;4.26;100.00;98592.16;5023661;28;20037;-57
2022/02/13 00:39:40;;;;;;;26.63;9.07;;;;;;;3.32;100.00;98591.72;5027453;28;20029;-61
2022/02/13 00:42:05;;;;;;;25.98;9.00;;;;;;;3.96;100.00;98586.31;5023616;28;20563;-60
2022/02/13 00:44:31;;;;;;;23.05;8.20;;;;;;;3.22;100.00;98578.84;5023489;28;20534;-60
2022/02/13 00:46:56;;;;;;;23.10;8.48;;;;;;;4.49;100.00;98583.44;5025623;28;20193;-59
2022/02/13 00:49:22;;;;;;;26.23;8.88;;;;;;;4.20;100.00;98584.47;5025027;28;20033;-59
2022/02/13 00:51:49;;;;;;;22.02;8.30;;;;;;;4.10;100.00;98577.63;5024094;28;20082;-58
2022/02/13 00:54:14;;;;;;;23.48;8.00;;;;;;;3.60;100.00;98577.91;5023950;28;20416;-58
2022/02/13 00:56:40;;;;;;;20.48;8.10;;;;;;;3.96;100.00;98563.09;5025556;28;20596;-60
2022/02/13 00:59:05;;;;;;;25.67;8.52;;;;;;;4.41;100.00;98576.59;5008121;28;20068;-58
2022/02/13 01:01:30;;;;;;;25.58;9.18;;;;;;;3.37;100.00;98577.09;5022342;28;20065;-58
2022/02/13 01:03:56;;;;;;;24.33;8.55;;;;;;;3.66;100.00;98575.28;5023605;28;20077;-56
2022/02/13 01:06:21;;;;;;;24.00;8.45;;;;;;;2.40;100.00;98572.88;5022879;28;20034;-58
2022/02/13 01:08:47;;;;;;;23.42;7.93;;;;;;;3.67;100.00;98566.66;5025953;28;20361;-56
2022/02/13 01:11:13;;;;;;;25.58;9.52;;;;;;;3.32;100.00;98573.69;5024936;28;20314;-59
2022/02/13 01:13:38;;;;;;;25.42;8.05;;;;;;;3.64;100.00;98564.13;5023422;28;20371;-59
2022/02/13 01:16:03;;;;;;;26.45;8.95;;;;;;;2.50;100.00;98555.75;5015676;28;20040;-58
2022/02/13 01:18:29;;;;;;;25.80;9.13;;;;;;;2.25;100.00;98565.16;5010274;28;20045;-59
2022/02/13 01:20:56;;;;;;;23.08;7.82;;;;;;;3.62;100.00;98565.84;5010769;28;20042;-59
2022/02/13 01:23:21;;;;;;;22.73;8.20;;;;;;;3.67;100.00;98561.50;5009364;28;20109;-57
2022/02/13 01:25:47;;;;;;;26.02;8.50;;;;;;;3.66;100.00;98570.13;5010799;28;20168;-58
2022/02/13 01:28:12;;;;;;;25.48;9.25;;;;;;;3.11;100.00;98574.56;5009419;28;20742;-58
2022/02/13 01:30:38;;;;;;;22.92;7.60;;;;;;;3.53;100.00;98565.88;5009439;28;20037;-58
2022/02/13 01:33:04;;;;;;;23.05;8.30;;;;;;;3.55;100.00;98565.84;5009948;28;20049;-58
2022/02/13 01:35:30;;;;;;;25.30;8.20;;;;;;;3.83;100.00;98569.19;5011655;28;20519;-57
2022/02/13 01:37:55;;;;;;;26.02;8.45;;;;;;;3.86;100.00;98559.72;5010848;28;20052;-59
2022/02/13 01:40:21;;;;;;;23.33;8.07;;;;;;;3.53;100.00;98563.31;5010882;28;20018;-57
2022/02/13 01:42:46;;;;;;;24.75;8.18;;;;;;;4.89;100.00;98572.75;5010957;28;20671;-59
2022/02/13 01:45:12;;;;;;;23.73;8.35;;;;;;;4.18;100.00;98569.00;5009230;28;20030;-58
2022/02/13 01:47:38;;;;;;;23.13;7.93;;;;;;;4.56;100.00;98569.59;5009653;28;20132;-58
2022/02/13 01:50:07;;;;;;;24.50;8.07;;;;;;;4.64;100.00;98562.63;5011090;28;20048;-57
2022/02/13 01:52:32;;;;;;;23.38;8.30;;;;;;;4.64;100.00;98566.06;5012470;28;20048;-59
2022/02/13 01:54:58;;;;;;;22.65;8.13;;;;;;;3.74;100.00;98556.34;5011256;28;20030;-58
2022/02/13 01:57:25;;;;;;;21.00;7.63;;;;;;;3.36;100.00;98554.75;5011194;28;20064;-58
2022/02/13 01:59:52;;;;;;;20.80;7.70;;;;;;;3.78;100.00;98564.03;5011010;28;20029;-58
2022/02/13 02:02:17;;;;;;;21.45;7.93;;;;;;;3.34;100.00;98557.31;5009458;28;20033;-59
2022/02/13 02:04:43;;;;;;;21.90;7.70;;;;;;;2.32;100.00;98556.59;5008406;28;20213;-58
2022/02/13 02:07:09;;;;;;;24.25;7.65;;;;;;;4.27;100.00;98556.91;5008727;28;20029;-57
2022/02/13 02:09:34;;;;;;;22.75;7.90;;;;;;;2.54;100.00;98554.00;5011384;28;20036;-59
2022/02/13 02:12:04;;;;;;;21.98;7.32;;;;;;;2.61;100.00;98553.16;5011210;28;20153;-59
2022/02/13 02:14:29;;;;;;;26.52;8.30;;;;;;;3.36;100.00;98549.59;5009878;28;20032;-59
2022/02/13 02:16:54;;;;;;;24.95;7.53;;;;;;;3.72;100.00;98538.28;5008996;28;20037;-59
2022/02/13 02:19:20;;;;;;;25.58;8.00;;;;;;;2.91;100.00;98535.97;5009795;28;20742;-59
2022/02/13 02:21:45;;;;;;;24.77;8.50;;;;;;;2.26;100.00;98526.56;5009010;28;20514;-58
2022/02/13 02:24:16;;;;;;;19.08;7.03;;;;;;;3.14;100.00;98535.91;5011030;28;20029;-58
2022/02/13 02:26:43;;;;;;;24.63;7.88;;;;;;;1.73;100.00;98541.03;5008997;28;20037;-58
2022/02/13 02:29:08;;;;;;;23.88;8.15;;;;;;;2.14;100.00;98530.84;5008235;28;20029;-58
2022/02/13 02:31:34;;;;;;;24.63;8.10;;;;;;;1.26;100.00;98541.69;5007779;28;20053;-59
2022/02/13 02:33:59;;;;;;;23.63;7.90;;;;;;;0.63;100.00;98532.75;5012625;28;20206;-58
2022/02/13 02:36:25;;;;;;;24.40;8.43;;;;;;;0.88;100.00;98539.78;5009305;28;20041;-57
2022/02/13 02:38:50;;;;;;;22.85;7.43;;;;;;;2.83;100.00;98544.56;5011305;28;20021;-57
2022/02/13 02:41:15;;;;;;;22.80;8.50;;;;;;;3.00;100.00;98546.25;5008722;28;20038;-58
2022/02/13 02:43:42;;;;;;;26.63;7.82;;;;;;;4.35;100.00;98548.22;5009594;28;20340;-58
2022/02/13 02:46:08;;;;;;;23.13;7.65;;;;;;;2.68;100.00;98542.00;5008831;28;20057;-57
2022/02/13 02:48:34;;;;;;;23.08;7.57;;;;;;;3.62;100.00;98532.31;5009546;28;20037;-59
2022/02/13 02:51:00;;;;;;;23.98;7.45;;;;;;;3.22;100.00;98535.03;5008141;28;20041;-58
2022/02/13 02:53:27;;;;;;;23.35;7.78;;;;;;;2.41;100.00;98525.69;5008018;28;20609;-57
2022/02/13 02:55:52;;;;;;;22.65;6.88;;;;;;;3.86;100.00;98536.47;5007293;28;20136;-60
2022/02/13 02:58:17;;;;;;;22.58;7.30;;;;;;;3.63;100.00;98530.56;5008254;28;20112;-57
2022/02/13 03:00:43;;;;;;;18.77;7.00;;;;;;;4.67;100.00;98529.03;5007704;28;20037;-58
2022/02/13 03:03:08;;;;;;;20.40;7.07;;;;;;;4.15;100.00;98532.00;5007142;28;20025;-59
2022/02/13 03:05:34;;;;;;;22.35;7.22;;;;;;;3.42;100.00;98523.81;5007238;28;20050;-58
2022/02/13 03:07:59;;;;;;;24.08;7.82;;;;;;;3.40;100.00;98522.94;5008211;28;20086;-58
2022/02/13 03:10:24;;;;;;;20.08;7.03;;;;;;;3.20;100.00;98523.88;5008371;28;20505;-58
2022/02/13 03:12:50;;;;;;;22.73;8.15;;;;;;;1.70;100.00;98520.44;5009419;28;20033;-58
2022/02/13 03:15:15;;;;;;;25.20;8.05;;;;;;;2.40;100.00;98518.81;5007049;28;20096;-60
2022/02/13 03:17:40;;;;;;;23.30;7.72;;;;;;;2.77;100.00;98518.78;5008995;28;20025;-56
2022/02/13 03:20:06;;;;;;;21.95;7.53;;;;;;;3.77;100.00;98522.78;5008570;28;20460;-58
2022/02/13 03:22:31;;;;;;;21.70;7.28;;;;;;;3.35;100.00;98527.25;5007855;28;20041;-57
2022/02/13 03:24:58;;;;;;;23.48;7.28;;;;;;;3.94;100.00;98533.84;5009037;28;20069;-58
2022/02/13 03:27:27;;;;;;;21.83;6.95;;;;;;;1.81;100.00;98532.47;5008421;28;20038;-60
2022/02/13 03:29:53;;;;;;;20.75;7.38;;;;;;;1.82;100.00;98539.31;5007772;28;20026;-60
2022/02/13 03:32:18;;;;;;;23.85;7.05;;;;;;;2.98;100.00;98537.66;5008284;28;20450;-59
2022/02/13 03:34:43;;;;;;;25.92;8.02;;;;;;;3.28;100.00;98536.72;5009710;28;20460;-58
2022/02/13 03:37:08;;;;;;;20.90;6.63;;;;;;;2.39;100.00;98530.00;5008990;28;20443;-59
2022/02/13 03:39:34;;;;;;;20.73;6.80;;;;;;;3.09;100.00;98525.63;5007232;28;20038;-57
2022/02/13 03:41:59;;;;;;;20.15;6.53;;;;;;;3.65;100.00;98527.13;5008106;28;20041;-57
2022/02/13 03:44:25;;;;;;;21.20;7.20;;;;;;;3.56;100.00;98527.16;5007221;28;20029;-57
2022/02/13 03:46:50;;;;;;;20.63;6.82;;;;;;;3.41;100.00;98522.94;5009626;28;20036;-59
2022/02/13 03:49:16;;;;;;;17.70;6.20;;;;;;;3.19;100.00;98522.13;5010066;28;20044;-58
2022/02/13 03:51:42;;;;;;;22.50;7.05;;;;;;;3.69;100.00;98517.63;5008028;28;20049;-59
2022/02/13 03:54:07;;;;;;;19.80;6.43;;;;;;;3.88;100.00;98522.69;5008548;28;20133;-58
2022/02/13 03:56:32;;;;;;;20.45;6.55;;;;;;;4.43;100.00;98518.03;5007921;28;20101;-58
2022/02/13 03:58:58;;;;;;;19.83;6.32;;;;;;;4.18;100.00;98511.34;5006747;28;20018;-59
2022/02/13 04:01:24;;;;;;;19.15;6.57;;;;;;;3.67;100.00;98515.06;5007996;28;20041;-58
2022/02/13 04:03:49;;;;;;;18.30;6.10;;;;;;;4.65;100.00;98523.03;5008025;28;20061;-58
2022/02/13 04:06:14;;;;;;;21.27;7.07;;;;;;;3.94;100.00;98522.69;5008697;28;20048;-58
2022/02/13 04:08:40;;;;;;;21.83;6.95;;;;;;;4.22;100.00;98518.19;5008100;28;20042;-58
2022/02/13 04:11:06;;;;;;;21.00;6.45;;;;;;;4.61;100.00;98513.56;5007687;28;20042;-58
2022/02/13 04:13:31;;;;;;;20.80;6.63;;;;;;;4.39;100.00;98524.09;5009631;28;20113;-59
2022/02/13 04:15:57;;;;;;;20.25;6.93;;;;;;;4.15;100.00;98519.09;5007234;28;20132;-57
2022/02/13 04:18:23;;;;;;;19.55;7.38;;;;;;;3.13;100.00;98514.44;5005257;28;20851;-58
2022/02/13 04:20:48;;;;;;;18.25;6.20;;;;;;;3.90;100.00;98521.84;5008500;28;20038;-59
2022/02/13 04:23:14;;;;;;;15.73;6.03;;;;;;;4.11;100.00;98519.97;5008761;28;20030;-58
2022/02/13 04:25:40;;;;;;;16.63;6.68;;;;;;;3.88;100.00;98515.84;5007323;28;20407;-57
2022/02/13 04:28:05;;;;;;;20.83;6.47;;;;;;;3.58;100.00;98514.25;5015956;28;20026;-59
2022/02/13 04:30:32;;;;;;;27.13;7.00;;;;;;;2.59;100.00;98511.97;5008735;28;20052;-57
2022/02/13 04:32:58;;;;;;;20.77;8.30;;;;;;;2.12;100.00;98508.50;5008156;28;20618;-58
2022/02/13 04:35:24;;;;;;;23.85;7.90;;;;;;;2.49;100.00;98502.53;5008796;28;20145;-57
2022/02/13 04:37:54;;;;;;;22.95;7.05;;;;;;;3.71;100.00;98504.72;5006814;28;20105;-59
2022/02/13 04:40:19;;;;;;;21.05;6.53;;;;;;;3.48;100.00;98510.88;5007802;28;20022;-58
2022/02/13 04:42:46;;;;;;;23.70;8.38;;;;;;;2.50;100.00;98493.94;5006871;28;20044;-57
2022/02/13 04:45:11;;;;;;;18.13;6.30;;;;;;;2.43;100.00;98495.66;5010270;28;20079;-57
2022/02/13 04:47:37;;;;;;;22.98;7.70;;;;;;;2.07;100.00;98494.78;5007958;28;20029;-57
2022/02/13 04:50:03;;;;;;;23.50;7.40;;;;;;;2.30;100.00;98496.53;5005979;28;20399;-58
2022/02/13 04:52:29;;;;;;;24.65;6.70;;;;;;;3.45;100.00;98497.97;5010697;28;20071;-57
2022/02/13 04:54:54;;;;;;;23.90;7.07;;;;;;;2.25;100.00;98493.09;5009313;28;20124;-57
2022/02/13 04:57:19;;;;;;;23.42;8.00;;;;;;;0.98;100.00;98496.19;5009230;28;20057;-58
2022/02/13 04:59:45;;;;;;;22.65;7.55;;;;;;;1.42;100.00;98482.66;5012299;28;20086;-58
2022/02/13 05:02:10;;;;;;;26.83;7.38;;;;;;;2.00;100.00;98492.19;5010632;28;20128;-58
2022/02/13 05:04:36;;;;;;;25.27;6.80;;;;;;;1.38;100.00;98491.19;5012301;28;20859;-59
2022/02/13 05:07:01;;;;;;;22.50;7.22;;;;;;;-0.49;100.00;98481.31;5010914;28;20753;-57
2022/02/13 05:09:27;;;;;;;23.58;6.97;;;;;;;0.04;100.00;98488.66;5009968;28;20030;-56
2022/02/13 05:11:52;;;;;;;21.70;7.80;;;;;;;1.45;100.00;98485.22;5013515;28;20492;-58
2022/02/13 05:14:17;;;;;;;22.38;6.90;;;;;;;2.40;100.00;98480.19;5011840;28;20013;-57
2022/02/13 05:16:43;;;;;;;22.35;6.55;;;;;;;2.96;100.00;98472.38;5009822;28;20038;-57
2022/02/13 05:19:08;;;;;;;26.45;8.50;;;;;;;2.71;100.00;98482.75;5010171;28;20040;-58
2022/02/13 05:21:33;;;;;;;23.08;7.72;;;;;;;2.04;100.00;98474.22;5010381;28;20321;-58
2022/02/13 05:23:59;;;;;;;21.85;6.68;;;;;;;2.00;100.00;98467.31;5011086;28;20053;-58
2022/02/13 05:26:24;;;;;;;19.70;6.25;;;;;;;3.14;100.00;98471.47;5007593;28;20029;-58
2022/02/13 05:28:50;;;;;;;22.92;6.25;;;;;;;2.96;100.00;98469.78;5010969;28;20030;-57
2022/02/13 05:31:17;;;;;;;29.38;8.63;;;;;;;2.27;100.00;98465.63;5009870;28;20066;-57
2022/02/13 05:33:43;;;;;;;24.35;7.35;;;;;;;2.20;100.00;98463.91;5011443;28;20056;-57
2022/02/13 05:36:08;;;;;;;22.90;6.57;;;;;;;1.38;100.00;98461.22;5010726;28;20694;-57
2022/02/13 05:38:33;;;;;;;30.00;9.20;;;;;;;0.39;100.00;98465.00;5010274;28;20040;-58
2022/02/13 05:40:59;;;;;;;24.35;7.40;;;;;;;0.47;100.00;98468.47;5010660;28;20053;-58
2022/02/13 05:43:24;;;;;;;26.38;9.13;;;;;;;0.51;100.00;98462.50;5011407;28;20112;-58
2022/02/13 05:45:50;;;;;;;26.08;8.40;;;;;;;0.75;100.00;98458.34;5009643;28;20071;-58
2022/02/13 05:48:15;;;;;;;20.23;6.57;;;;;;;1.37;100.00;98464.63;5008950;28;20455;-57
2022/02/13 05:50:41;;;;;;;26.67;7.25;;;;;;;1.78;100.00;98475.88;5011504;28;20124;-58
2022/02/13 05:53:07;;;;;;;24.88;7.93;;;;;;;0.67;100.00;98466.03;5008227;28;20575;-59
2022/02/13 05:55:33;;;;;;;20.02;6.07;;;;;;;1.62;100.00;98470.72;5008689;28;20044;-58
2022/02/13 05:57:58;;;;;;;19.83;6.07;;;;;;;2.62;100.00;98477.63;5010532;28;20022;-58
2022/02/13 06:00:24;;;;;;;20.67;6.88;;;;;;;2.57;100.00;98471.59;5009525;28;20061;-57
2022/02/13 06:02:49;;;;;;;22.02;7.30;;;;;;;2.10;100.00;98466.47;5009778;28;20032;-58
2022/02/13 06:05:14;;;;;;;26.65;8.05;;;;;;;1.47;100.00;98465.50;5011475;28;20046;-58
2022/02/13 06:07:42;;;;;;;24.05;6.38;;;;;;;2.87;100.00;98466.41;5010922;28;20029;-58
2022/02/13 06:10:09;;;;;;;21.98;7.18;;;;;;;2.31;100.00;98467.34;5009829;28;20033;-58
2022/02/13 06:12:35;;;;;;;22.95;7.25;;;;;;;2.04;100.00;98469.06;5009671;28;20037;-56
2022/02/13 06:15:00;;;;;;;31.35;10.10;;;;;;;0.57;100.00;98464.28;5008205;28;20033;-57
2022/02/13 06:17:26;;;;;;;23.63;7.03;;;;;;;1.87;100.00;98470.75;5009264;28;20044;-58
2022/02/13 06:19:51;;;;;;;30.35;9.50;;;;;;;1.84;100.00;98468.16;5008958;28;20021;-57
2022/02/13 06:22:17;;;;;;;26.35;8.35;;;;;;;1.56;100.00;98465.53;5010300;28;20060;-56
2022/02/13 06:24:42;;;;;;;23.58;8.05;;;;;;;0.40;100.00;98460.72;5009335;28;20111;-55
2022/02/13 06:27:07;;;;;;;28.35;7.13;;;;;;;3.10;100.00;98465.47;5009026;28;20076;-58
2022/02/13 06:29:33;;;;;;;28.73;9.20;;;;;;;1.98;100.00;98456.19;5009038;28;20049;-58
2022/02/13 06:32:00;;;;;;;26.83;8.00;;;;;;;0.55;100.00;98453.97;5019023;28;20087;-56
2022/02/13 06:34:25;;;;;;;25.08;7.88;;;;;;;1.27;100.00;98466.31;5009025;28;20065;-58
2022/02/13 06:36:50;;;;;;;23.95;6.60;;;;;;;2.28;100.00;98465.63;5008374;28;20057;-58
2022/02/13 06:39:16;;;;;;;28.88;9.68;;;;;;;-0.44;100.00;98469.38;5007712;28;20113;-57
2022/02/13 06:41:41;;;;;;;21.42;6.07;;;;;;;1.71;100.00;98475.88;5009775;28;20033;-58
2022/02/13 06:44:06;;;;;;;28.42;9.02;;;;;;;0.61;100.00;98466.00;5010189;28;20030;-58
2022/02/13 06:46:32;;;;;;;26.33;9.18;;;;;;;0.06;100.00;98461.31;5010144;28;20871;-56
2022/02/13 06:48:57;;;;;;;25.98;8.75;;;;;;;0.71;100.00;98456.63;5008601;28;20083;-57
2022/02/13 06:51:22;;;;;;;19.90;6.50;;;;;;;1.54;100.00;98468.13;5007897;28;20156;-58
2022/02/13 06:53:48;;;;;;;30.70;9.05;;;;;;;1.39;100.00;98462.06;5009081;28;20341;-57
2022/02/13 06:56:13;;;;;;;24.80;7.95;;;;;;;1.10;100.00;98462.81;5008676;28;20548;-58
2022/02/13 06:58:40;;;;;;;25.92;8.10;;;;;;;1.07;100.00;98450.81;5005553;28;20605;-58
2022/02/13 07:01:05;;;;;;;28.95;9.35;;;;;;;0.58;100.00;98461.69;5008835;28;20061;-59
2022/02/13 07:03:31;;;;;;;22.33;7.85;;;;;;;0.33;100.00;98462.38;5008921;28;20179;-59
2022/02/13 07:05:56;;;;;;;31.40;10.02;;;;;;;-0.44;100.00;98459.13;5006587;28;20129;-58
2022/02/13 07:08:21;;;;;;;25.92;8.48;;;;;;;0.61;100.00;98462.53;5010343;28;20039;-59
2022/02/13 07:10:47;;;;;;;25.55;8.57;;;;;;;-0.31;100.00;98461.00;5007399;28;20038;-57
2022/02/13 07:13:12;;;;;;;23.00;8.40;;;;;;;0.49;100.00;98456.50;5007298;28;20037;-56
2022/02/13 07:15:37;;;;;;;27.02;8.80;;;;;;;0.49;100.00;98456.50;5008144;28;20045;-58
2022/02/13 07:18:04;;;;;;;22.40;8.13;;;;;;;1.18;100.00;98448.31;5008615;28;20038;-59
2022/02/13 07:20:29;;;;;;;27.13;8.52;;;;;;;0.94;100.00;98451.63;5010676;28;20034;-58
2022/02/13 07:22:56;;;;;;;22.77;8.65;;;;;;;0.88;100.00;98449.91;5010789;28;20038;-59
2022/02/13 07:25:22;;;;;;;26.80;8.95;;;;;;;0.99;100.00;98451.63;5008352;28;20033;-57
2022/02/13 07:27:47;;;;;;;27.73;9.40;;;;;;;0.08;100.00;98448.50;5009739;28;20044;-58
2022/02/13 07:30:13;;;;;;;28.20;9.10;;;;;;;1.29;100.00;98451.75;5011803;28;20447;-58
2022/02/13 07:32:43;;;;;;;26.27;8.93;;;;;;;1.73;100.00;98448.44;5008244;28;20045;-59
2022/02/13 07:35:09;;;;;;;25.02;8.68;;;;;;;2.42;100.00;98445.00;5007887;28;20112;-58
2022/02/13 07:37:35;;;;;;;91.88;11.93;;;;;;;2.24;100.00;98443.34;5008062;28;20167;-58
2022/02/13 07:40:01;;;;;;;1999.90;126.00;;;;;;;2.70;100.00;98444.97;5006441;28;20072;-58
2022/02/13 07:42:26;;;;;;;1598.63;70.85;;;;;;;3.21;100.00;98440.50;5007129;28;20443;-57
2022/02/13 07:44:51;;;;;;;1999.90;127.93;;;;;;;4.18;100.00;98437.31;5007149;28;20029;-57
2022/02/13 07:47:17;;;;;;;815.42;36.75;;;;;;;5.88;100.00;98435.31;5006185;28;20463;-57
2022/02/13 07:49:42;;;;;;;31.33;10.63;;;;;;;6.91;100.00;98433.59;5005984;28;20610;-58
2022/02/13 07:52:08;;;;;;;23.27;9.05;;;;;;;8.27;100.00;98419.34;5008135;28;20034;-59
2022/02/13 07:54:34;;;;;;;21.65;8.43;;;;;;;8.19;100.00;98421.28;5007623;28;20438;-57
2022/02/13 07:56:59;;;;;;;23.35;8.05;;;;;;;10.12;100.00;98416.69;5006884;28;20144;-58
2022/02/13 07:59:25;;;;;;;19.77;8.23;;;;;;;10.14;100.00;98419.25;5005824;28;20590;-59
2022/02/13 08:01:50;;;;;;;20.58;8.30;;;;;;;10.68;100.00;98412.25;5007737;28;20061;-58
2022/02/13 08:04:16;;;;;;;25.45;8.63;;;;;;;11.65;82.91;98414.81;5008222;28;20116;-58
2022/02/13 08:06:41;;;;;;;16.83;7.10;;;;;;;11.89;78.41;98412.97;5007250;28;20104;-58
2022/02/13 08:09:06;;;;;;;17.90;8.18;;;;;;;12.26;70.33;98410.66;5007722;28;20033;-58
2022/02/13 08:11:32;;;;;;;19.05;8.57;;;;;;;14.12;53.90;98402.34;5008475;28;20038;-58
2022/02/13 08:13:58;;;;;;;17.73;7.93;;;;;;;10.57;73.00;98413.50;5006964;28;20034;-57
2022/02/13 08:16:24;;;;;;;19.05;8.25;;;;;;;8.64;93.37;98412.38;5007173;28;20050;-58
2022/02/13 08:18:49;;;;;;;20.70;8.73;;;;;;;8.03;98.38;98406.94;5009186;28;20406;-57
2022/02/13 08:21:14;;;;;;;18.85;8.48;;;;;;;8.83;92.80;98404.94;5007885;28;20055;-58
2022/02/13 08:23:40;;;;;;;16.80;7.75;;;;;;;8.58;100.00;98400.38;5007455;28;20080;-59
2022/02/13 08:26:06;;;;;;;21.17;9.20;;;;;;;8.09;100.00;98401.63;5007505;28;20104;-58
2022/02/13 08:28:34;;;;;;;20.92;8.70;;;;;;;7.43;100.00;98396.22;5012227;28;20092;-59
2022/02/13 08:31:00;;;;;;;19.80;9.15;;;;;;;7.91;100.00;98398.56;5011624;28;20041;-60
2022/02/13 08:33:26;;;;;;;19.42;8.45;;;;;;;7.25;100.00;98399.19;5011925;28;20037;-60
2022/02/13 08:35:51;;;;;;;21.85;8.75;;;;;;;7.03;100.00;98399.63;5013123;28;20120;-60
2022/02/13 08:38:17;;;;;;;21.92;9.27;;;;;;;6.42;100.00;98398.22;5010490;28;20038;-59
2022/02/13 08:40:42;;;;;;;24.40;9.20;;;;;;;6.87;100.00;98395.63;5010732;28;20042;-59
2022/02/13 08:43:08;;;;;;;21.23;8.57;;;;;;;6.25;100.00;98389.00;5011822;28;20022;-60
2022/02/13 08:45:35;;;;;;;23.30;8.95;;;;;;;6.20;100.00;98388.22;5010607;28;20132;-59
2022/02/13 08:48:01;;;;;;;22.73;9.05;;;;;;;6.34;100.00;98388.84;5009750;28;20026;-59
2022/02/13 08:50:27;;;;;;;23.95;9.40;;;;;;;6.70;100.00;98394.22;5010966;28;20099;-59
2022/02/13 08:52:52;;;;;;;29.95;9.80;;;;;;;6.26;100.00;98388.13;5011656;28;20025;-58
2022/02/13 08:55:18;;;;;;;23.27;8.63;;;;;;;6.55;100.00;98384.16;5011359;28;20084;-59
2022/02/13 08:57:45;;;;;;;22.42;8.82;;;;;;;6.26;100.00;98385.53;5012052;28;20096;-57
2022/02/13 09:00:12;;;;;;;24.92;8.73;;;;;;;6.59;100.00;98385.81;5010988;28;20033;-60
2022/02/13 09:02:38;;;;;;;24.98;9.95;;;;;;;6.69;100.00;98379.56;5011852;28;20032;-60
2022/02/13 09:05:06;;;;;;;24.15;8.13;;;;;;;6.68;100.00;98380.44;5009961;28;20033;-58
2022/02/13 09:07:35;;;;;;;23.58;8.00;;;;;;;7.04;100.00;98374.53;5010269;28;20447;-59
2022/02/13 09:10:02;;;;;;;24.52;8.20;;;;;;;6.89;100.00;98374.00;5012002;28;20973;-59
2022/02/13 09:12:29;;;;;;;21.58;8.18;;;;;;;6.79;100.00;98376.81;5010270;28;20074;-59
2022/02/13 09:14:55;;;;;;;22.90;8.82;;;;;;;6.54;100.00;98366.88;5012088;28;20025;-59
2022/02/13 09:17:21;;;;;;;19.70;6.95;;;;;;;7.17;100.00;98364.75;5010556;28;20029;-59
2022/02/13 09:19:46;;;;;;;23.73;8.25;;;;;;;6.94;100.00;98360.91;5012769;28;20079;-59
2022/02/13 09:22:12;;;;;;;20.02;7.32;;;;;;;7.35;100.00;98359.16;5010960;28;20136;-60
2022/02/13 09:24:37;;;;;;;25.83;8.50;;;;;;;7.47;100.00;98360.66;5010448;28;20026;-60
2022/02/13 09:27:03;;;;;;;24.40;8.40;;;;;;;7.33;100.00;98359.22;5009783;28;20049;-59
2022/02/13 09:29:28;;;;;;;22.58;7.63;;;;;;;7.19;100.00;98361.28;5010781;28;20510;-57
2022/02/13 09:31:54;;;;;;;26.08;8.25;;;;;;;7.61;100.00;98355.13;5010261;28;20132;-58
2022/02/13 09:34:25;;;;;;;27.73;9.20;;;;;;;8.32;100.00;98356.84;5010115;28;20021;-60
2022/02/13 09:36:51;;;;;;;22.30;8.38;;;;;;;8.49;100.00;98352.09;5009829;28;20583;-59
2022/02/13 09:39:16;;;;;;;22.42;8.20;;;;;;;7.88;100.00;98357.09;5009409;28;20036;-60
2022/02/13 09:41:42;;;;;;;20.70;7.65;;;;;;;8.19;100.00;98350.25;5011969;28;20068;-58
2022/02/13 09:44:09;;;;;;;19.42;7.75;;;;;;;8.20;100.00;98358.03;5012362;28;20121;-58
2022/02/13 09:46:36;;;;;;;23.35;8.05;;;;;;;8.38;100.00;98345.44;5009963;28;20084;-58
2022/02/13 09:49:02;;;;;;;21.02;7.70;;;;;;;8.60;100.00;98346.59;5007715;28;20036;-59
2022/02/13 09:51:31;;;;;;;20.00;7.63;;;;;;;7.95;100.00;98336.16;5009854;28;20037;-58
2022/02/13 09:53:57;;;;;;;23.60;7.18;;;;;;;8.91;100.00;98335.31;5009101;28;20560;-59
2022/02/13 09:56:22;;;;;;;19.63;5.85;;;;;;;10.14;100.00;98344.50;5007169;28;20045;-59
2022/02/13 09:58:48;;;;;;;14.40;4.70;;;;;;;11.68;100.00;98346.72;5008813;28;20060;-59
2022/02/13 10:01:13;;;;;;;20.00;7.15;;;;;;;9.90;100.00;98322.72;5008260;28;20049;-59
2022/02/13 10:03:41;;;;;;;16.98;5.95;;;;;;;11.91;100.00;98347.59;5009906;28;20061;-58
2022/02/13 10:06:12;;;;;;;16.20;5.82;;;;;;;11.42;100.00;98328.63;5009623;28;20408;-57
2022/02/13 10:08:39;;;;;;;23.38;7.30;;;;;;;9.93;98.14;98319.19;5010804;28;20033;-58
2022/02/13 10:11:20;;;;;;;15.77;6.28;;;;;;;10.19;100.00;98313.06;5009254;28;20092;-58
2022/02/13 10:13:57;;;;;;;21.88;7.57;;;;;;;9.41;97.01;98309.53;5010107;28;20060;-56
2022/02/13 10:16:31;;;;;;;19.38;7.03;;;;;;;10.90;91.25;98301.00;5008934;28;20042;-57
2022/02/13 10:18:57;;;;;;;17.88;6.38;;;;;;;10.34;100.00;98296.06;5010120;28;20682;-58
2022/02/13 10:21:34;;;;;;;18.00;6.82;;;;;;;10.52;76.92;98297.19;5012698;28;20084;-58
2022/02/13 10:24:33;;;;;;;19.55;6.88;;;;;;;11.44;72.53;98290.25;5005907;28;20029;-57
2022/02/13 10:27:08;;;;;;;17.23;5.90;;;;;;;11.75;73.39;98295.91;4973086;28;20045;-58
2022/02/13 10:29:37;;;;;;;17.58;6.30;;;;;;;11.94;64.04;98295.19;5011810;28;20051;-61
2022/02/13 10:32:20;;;;;;;19.60;5.97;;;;;;;10.98;78.08;98288.50;5010588;28;20486;-59
2022/02/13 10:35:10;;;;;;;19.40;7.32;;;;;;;12.08;88.08;98287.63;5009476;28;20018;-60
2022/02/13 10:37:42;;;;;;;17.88;6.55;;;;;;;12.09;61.94;98280.63;5007941;28;20042;-59
2022/02/13 10:40:20;;;;;;;17.67;6.28;;;;;;;11.81;63.96;98273.06;5009179;28;20116;-60
2022/02/13 10:42:46;;;;;;;16.77;6.57;;;;;;;11.32;67.97;98271.53;5008443;28;20877;-59
2022/02/13 10:45:22;;;;;;;17.73;6.80;;;;;;;10.54;67.92;98267.53;5008411;28;20067;-59
2022/02/13 10:47:51;;;;;;;17.80;6.53;;;;;;;10.51;70.77;98265.03;5008482;28;20033;-60
2022/02/13 10:50:18;;;;;;;18.17;6.30;;;;;;;11.14;67.28;98261.81;5007312;28;20049;-60
2022/02/13 10:52:52;;;;;;;17.10;6.18;;;;;;;12.15;62.29;98252.44;5008233;28;20112;-60
2022/02/13 10:55:18;;;;;;;15.93;5.85;;;;;;;13.24;64.03;98243.16;5007199;28;20013;-60
2022/02/13 10:57:43;;;;;;;16.00;5.70;;;;;;;14.34;54.99;98231.56;5010670;28;20048;-60
2022/02/13 11:00:10;;;;;;;14.25;5.38;;;;;;;14.76;58.16;98226.72;5007066;28;20144;-60
2022/02/13 11:02:38;;;;;;;15.43;5.93;;;;;;;11.18;60.77;98226.84;5005619;28;20116;-60
2022/02/13 11:05:04;;;;;;;14.55;5.38;;;;;;;12.23;72.39;98222.50;5007890;28;20037;-57
2022/02/13 11:07:31;;;;;;;15.52;6.05;;;;;;;11.71;60.53;98215.97;5008899;28;20028;-57
2022/02/13 11:09:58;;;;;;;19.33;6.60;;;;;;;12.28;61.94;98210.06;5009230;28;20080;-58
2022/02/13 11:12:24;;;;;;;13.80;5.95;;;;;;;13.07;55.71;98207.31;5008141;28;20498;-57
2022/02/13 11:14:49;;;;;;;15.90;6.05;;;;;;;13.06;55.44;98203.00;5008995;28;20025;-58
2022/02/13 11:17:32;;;;;;;13.48;5.40;;;;;;;13.42;52.67;98202.16;5008713;28;20052;-59
2022/02/13 11:19:58;;;;;;;14.85;5.80;;;;;;;12.65;54.21;98197.94;5009881;28;20032;-61